N4008U KDAB-KMCO
Flight info
| Callsign | N4008U |
|---|---|
| Flight time | 0h 20m |
| Altitude | 12000 |
| Route | GTOUT |
| Aircraft | CL60/M-SBDE1E2E3FGHIJ1J4J5J7M3RWXYZ/LB1V1D1 |
Departure
| Time | 2026-04-26 16:02 |
|---|---|
| Airport | Daytona Beach International Airport (KDAB) |
Arrival
| Time | 2026-04-26 16:22 |
|---|---|
| Airport | Orlando International Airport (KMCO) |
| Time | Latitude | Longitude | Altitude | Speed | Heading |
|---|---|---|---|---|---|
| 2026-04-26 15:12 | 29.18623 | -81.05616 | 34 ft | 0 kts | 166° |
| 2026-04-26 15:56 | 29.18610 | -81.05609 | 33 ft | 6 kts | 150° |
| 2026-04-26 15:56 | 29.18571 | -81.05555 | 33 ft | 10 kts | 122° |
| 2026-04-26 15:56 | 29.18511 | -81.05491 | 33 ft | 13 kts | 160° |
| 2026-04-26 15:56 | 29.18417 | -81.05452 | 33 ft | 15 kts | 159° |
| 2026-04-26 15:57 | 29.18326 | -81.05473 | 33 ft | 15 kts | 239° |
| 2026-04-26 15:57 | 29.18289 | -81.05598 | 33 ft | 17 kts | 245° |
| 2026-04-26 15:57 | 29.18231 | -81.05727 | 33 ft | 18 kts | 243° |
| 2026-04-26 15:57 | 29.18192 | -81.05822 | 33 ft | 22 kts | 245° |
| 2026-04-26 15:58 | 29.18081 | -81.06104 | 30 ft | 31 kts | 245° |
| 2026-04-26 15:58 | 29.17989 | -81.06335 | 30 ft | 32 kts | 245° |
| 2026-04-26 15:58 | 29.17895 | -81.06569 | 30 ft | 32 kts | 246° |
| 2026-04-26 15:58 | 29.17811 | -81.06786 | 30 ft | 29 kts | 244° |
| 2026-04-26 15:59 | 29.17722 | -81.07003 | 30 ft | 30 kts | 246° |
| 2026-04-26 15:59 | 29.17635 | -81.07224 | 30 ft | 30 kts | 245° |
| 2026-04-26 15:59 | 29.17551 | -81.07415 | 30 ft | 21 kts | 240° |
| 2026-04-26 15:59 | 29.17480 | -81.07549 | 30 ft | 12 kts | 218° |
| 2026-04-26 16:00 | 29.17440 | -81.07556 | 30 ft | 0 kts | 162° |
| 2026-04-26 16:00 | 29.17432 | -81.07553 | 30 ft | 3 kts | 161° |
| 2026-04-26 16:00 | 29.17382 | -81.07531 | 30 ft | 9 kts | 156° |
| 2026-04-26 16:01 | 29.17375 | -81.07482 | 30 ft | 0 kts | 63° |
| 2026-04-26 16:01 | 29.17457 | -81.07276 | 30 ft | 74 kts | 68° |
| 2026-04-26 16:01 | 29.17807 | -81.06429 | 31 ft | 156 kts | 64° |
| 2026-04-26 16:01 | 29.18338 | -81.05181 | 450 ft | 184 kts | 63° |
| 2026-04-26 16:02 | 29.18946 | -81.03825 | 1163 ft | 198 kts | 62° |
| 2026-04-26 16:02 | 29.19581 | -81.02363 | 1841 ft | 220 kts | 63° |
| 2026-04-26 16:02 | 29.20270 | -81.00751 | 2792 ft | 231 kts | 63° |
| 2026-04-26 16:02 | 29.20763 | -80.99590 | 3141 ft | 252 kts | 63° |
| 2026-04-26 16:03 | 29.21841 | -80.97073 | 4147 ft | 275 kts | 63° |
| 2026-04-26 16:03 | 29.22625 | -80.95049 | 5098 ft | 285 kts | 73° |
| 2026-04-26 16:03 | 29.22719 | -80.92824 | 6106 ft | 291 kts | 102° |
| 2026-04-26 16:03 | 29.21844 | -80.90738 | 7129 ft | 293 kts | 133° |
| 2026-04-26 16:04 | 29.20247 | -80.89381 | 8238 ft | 290 kts | 155° |
| 2026-04-26 16:04 | 29.18329 | -80.88712 | 9262 ft | 289 kts | 180° |
| 2026-04-26 16:04 | 29.16408 | -80.89122 | 10249 ft | 287 kts | 208° |
| 2026-04-26 16:04 | 29.14886 | -80.90540 | 11190 ft | 286 kts | 236° |
| 2026-04-26 16:05 | 29.13919 | -80.92594 | 11741 ft | 297 kts | 250° |
| 2026-04-26 16:05 | 29.13422 | -80.94883 | 11938 ft | 294 kts | 262° |
| 2026-04-26 16:05 | 29.13121 | -80.97179 | 11962 ft | 292 kts | 262° |
| 2026-04-26 16:05 | 29.12826 | -80.99503 | 11964 ft | 289 kts | 263° |
| 2026-04-26 16:06 | 29.12524 | -81.01798 | 11970 ft | 289 kts | 258° |
| 2026-04-26 16:06 | 29.11834 | -81.03964 | 11966 ft | 290 kts | 242° |
| 2026-04-26 16:06 | 29.10605 | -81.05795 | 11961 ft | 293 kts | 225° |
| 2026-04-26 16:06 | 29.08904 | -81.07142 | 11965 ft | 296 kts | 207° |
| 2026-04-26 16:07 | 29.06950 | -81.07818 | 11964 ft | 287 kts | 190° |
| 2026-04-26 16:07 | 29.04991 | -81.07938 | 11960 ft | 274 kts | 184° |
| 2026-04-26 16:07 | 29.03128 | -81.07981 | 11962 ft | 268 kts | 184° |
| 2026-04-26 16:07 | 29.01222 | -81.08034 | 11963 ft | 270 kts | 184° |
| 2026-04-26 16:08 | 28.99332 | -81.08087 | 11960 ft | 270 kts | 185° |
| 2026-04-26 16:08 | 28.98091 | -81.08106 | 11956 ft | 271 kts | 181° |
| 2026-04-26 16:08 | 28.95560 | -81.07911 | 11792 ft | 277 kts | 178° |
| 2026-04-26 16:08 | 28.93603 | -81.07716 | 11194 ft | 288 kts | 178° |
| 2026-04-26 16:09 | 28.91549 | -81.07510 | 10552 ft | 297 kts | 178° |
| 2026-04-26 16:09 | 28.89510 | -81.07309 | 9904 ft | 303 kts | 178° |
| 2026-04-26 16:09 | 28.87363 | -81.07100 | 9229 ft | 304 kts | 178° |
| 2026-04-26 16:09 | 28.85250 | -81.06895 | 8603 ft | 303 kts | 178° |
| 2026-04-26 16:10 | 28.83144 | -81.06686 | 7974 ft | 301 kts | 177° |
| 2026-04-26 16:10 | 28.81062 | -81.06477 | 7371 ft | 299 kts | 178° |
| 2026-04-26 16:10 | 28.79023 | -81.06278 | 6870 ft | 293 kts | 178° |
| 2026-04-26 16:10 | 28.76987 | -81.06076 | 6410 ft | 286 kts | 178° |
| 2026-04-26 16:11 | 28.75019 | -81.05877 | 5973 ft | 278 kts | 178° |
| 2026-04-26 16:11 | 28.73143 | -81.05607 | 5772 ft | 264 kts | 165° |
| 2026-04-26 16:11 | 28.71616 | -81.04565 | 5608 ft | 255 kts | 133° |
| 2026-04-26 16:11 | 28.70792 | -81.02771 | 5164 ft | 256 kts | 105° |
| 2026-04-26 16:12 | 28.70215 | -81.00879 | 4716 ft | 253 kts | 124° |
| 2026-04-26 16:12 | 28.68966 | -80.99551 | 4263 ft | 245 kts | 159° |
| 2026-04-26 16:12 | 28.65932 | -81.00095 | 3438 ft | 222 kts | 231° |
| 2026-04-26 16:13 | 28.65295 | -81.01623 | 3190 ft | 210 kts | 259° |
| 2026-04-26 16:13 | 28.65071 | -81.03226 | 2986 ft | 201 kts | 262° |
| 2026-04-26 16:13 | 28.64894 | -81.04800 | 2999 ft | 202 kts | 263° |
| 2026-04-26 16:13 | 28.64717 | -81.06399 | 2990 ft | 203 kts | 263° |
| 2026-04-26 16:14 | 28.64537 | -81.08006 | 2975 ft | 201 kts | 262° |
| 2026-04-26 16:14 | 28.64359 | -81.09607 | 2981 ft | 202 kts | 263° |
| 2026-04-26 16:14 | 28.64003 | -81.12785 | 2972 ft | 201 kts | 263° |
| 2026-04-26 16:15 | 28.63825 | -81.14382 | 2975 ft | 202 kts | 263° |
| 2026-04-26 16:15 | 28.63646 | -81.15977 | 2973 ft | 202 kts | 263° |
| 2026-04-26 16:15 | 28.63478 | -81.17487 | 2975 ft | 202 kts | 263° |
| 2026-04-26 16:16 | 28.63121 | -81.20746 | 2972 ft | 201 kts | 263° |
| 2026-04-26 16:16 | 28.62949 | -81.22291 | 2970 ft | 194 kts | 263° |
| 2026-04-26 16:16 | 28.62782 | -81.23782 | 2967 ft | 182 kts | 263° |
| 2026-04-26 16:16 | 28.62621 | -81.25199 | 2962 ft | 180 kts | 263° |
| 2026-04-26 16:17 | 28.62448 | -81.26615 | 2983 ft | 178 kts | 258° |
| 2026-04-26 16:17 | 28.61856 | -81.27856 | 2956 ft | 183 kts | 225° |
| 2026-04-26 16:17 | 28.60756 | -81.28609 | 2971 ft | 185 kts | 208° |
| 2026-04-26 16:17 | 28.59582 | -81.29245 | 2982 ft | 187 kts | 208° |
| 2026-04-26 16:18 | 28.58405 | -81.29893 | 2973 ft | 186 kts | 208° |
| 2026-04-26 16:18 | 28.56206 | -81.31097 | 2961 ft | 157 kts | 209° |
| 2026-04-26 16:19 | 28.54078 | -81.31846 | 2609 ft | 157 kts | 202° |
| 2026-04-26 16:19 | 28.53033 | -81.32232 | 2188 ft | 156 kts | 197° |
| 2026-04-26 16:19 | 28.51418 | -81.32539 | 1736 ft | 139 kts | 189° |
| 2026-04-26 16:20 | 28.50063 | -81.32639 | 1427 ft | 146 kts | 184° |
| 2026-04-26 16:20 | 28.48036 | -81.32616 | 996 ft | 144 kts | 185° |
| 2026-04-26 16:20 | 28.47042 | -81.32645 | 814 ft | 141 kts | 184° |
| 2026-04-26 16:21 | 28.46072 | -81.32655 | 514 ft | 139 kts | 182° |
| 2026-04-26 16:21 | 28.45085 | -81.32666 | 213 ft | 139 kts | 183° |
| 2026-04-26 16:21 | 28.44149 | -81.32673 | 103 ft | 126 kts | 183° |
| 2026-04-26 16:21 | 28.43355 | -81.32668 | 93 ft | 97 kts | 181° |
| 2026-04-26 16:22 | 28.42862 | -81.32673 | 93 ft | 44 kts | 184° |
| 2026-04-26 16:22 | 28.42671 | -81.32695 | 93 ft | 13 kts | 224° |
| 2026-04-26 16:22 | 28.42652 | -81.32793 | 93 ft | 11 kts | 269° |
| 2026-04-26 16:22 | 28.42652 | -81.32799 | 93 ft | 0 kts | 268° |
| 2026-04-26 16:23 | 28.42651 | -81.32818 | 93 ft | 9 kts | 267° |
| 2026-04-26 16:23 | 28.42661 | -81.32927 | 93 ft | 15 kts | 305° |
| 2026-04-26 16:23 | 28.42762 | -81.32972 | 93 ft | 17 kts | 12° |
| 2026-04-26 16:24 | 28.42893 | -81.32941 | 93 ft | 20 kts | 9° |
| 2026-04-26 16:24 | 28.43043 | -81.32927 | 93 ft | 22 kts | 358° |
| 2026-04-26 16:24 | 28.43173 | -81.32952 | 93 ft | 13 kts | 297° |
| 2026-04-26 16:24 | 28.43185 | -81.33064 | 92 ft | 12 kts | 272° |
| 2026-04-26 16:25 | 28.43235 | -81.33112 | 91 ft | 0 kts | 355° |